Terminal Aerodrome Forecast
Issued by NWS

Home | Current Version | Previous Version | Text Only | Print | Product List | Glossary On
Versions: 1 2 3 4 5 6 7 8 9 10 11 12 13 14 15 16 17 18 19 20 21 22 23
000
FTUS42 KFFC 021957 AAA
TAFPDK
TAF AMD
KPDK 021957Z 0220/0318 33006KT P6SM VCSH BKN050 BKN070
     FM030000 33004KT P6SM SCT250
     FM030600 VRB03KT 5SM BR SCT005
     FM031400 06003KT P6SM SCT250=

USA.gov is the U.S. government's official web portal to all federal, state and local government web resources and services.